createdAt,value
2018-08-12T00:02:17.827Z,17.70
2018-08-12T00:04:45.733Z,17.70
2018-08-12T00:07:13.653Z,17.60
2018-08-12T00:09:41.632Z,17.70
2018-08-12T00:12:09.699Z,17.60
2018-08-12T00:14:37.533Z,17.70
2018-08-12T00:17:05.467Z,17.70
2018-08-12T00:19:33.294Z,17.60
2018-08-12T00:22:01.219Z,17.60
2018-08-12T00:24:29.358Z,17.60
2018-08-12T00:26:57.311Z,17.50
2018-08-12T00:29:25.159Z,17.50
2018-08-12T00:31:52.977Z,17.40
2018-08-12T00:34:20.944Z,17.40
2018-08-12T00:36:48.931Z,17.50
2018-08-12T00:39:16.807Z,17.40
2018-08-12T00:41:44.913Z,17.40
2018-08-12T00:44:12.857Z,17.40
2018-08-12T00:46:40.733Z,17.30
2018-08-12T00:49:08.657Z,17.40
2018-08-12T00:51:36.697Z,17.40
2018-08-12T00:54:04.814Z,17.30
2018-08-12T00:56:32.826Z,17.30
2018-08-12T00:59:01.554Z,17.30
2018-08-12T01:01:29.577Z,17.20
2018-08-12T01:03:57.352Z,17.20
2018-08-12T01:06:25.243Z,17.10
2018-08-12T01:08:53.126Z,17.10
2018-08-12T01:11:21.152Z,17.00
2018-08-12T01:13:49.042Z,17.00
2018-08-12T01:16:16.998Z,16.90
2018-08-12T01:18:44.932Z,16.90
2018-08-12T01:21:13.000Z,16.90
2018-08-12T01:23:40.800Z,16.90
2018-08-12T01:26:08.778Z,16.90
2018-08-12T01:28:36.620Z,16.90
2018-08-12T01:31:04.572Z,16.90
2018-08-12T01:33:32.589Z,16.80
2018-08-12T01:36:00.602Z,16.80
2018-08-12T01:38:28.511Z,16.70
2018-08-12T01:40:56.515Z,16.70
2018-08-12T01:43:24.381Z,16.70
2018-08-12T01:45:52.316Z,16.60
2018-08-12T01:48:20.213Z,16.60
2018-08-12T01:50:48.169Z,16.50
2018-08-12T01:53:16.083Z,16.40
2018-08-12T01:55:43.949Z,16.40
2018-08-12T01:58:11.789Z,16.30
2018-08-12T02:00:39.631Z,16.30
2018-08-12T02:03:07.623Z,16.10
2018-08-12T02:05:35.627Z,16.00
2018-08-12T02:08:03.569Z,15.90
2018-08-12T02:10:31.608Z,15.90
2018-08-12T02:12:59.614Z,15.80
2018-08-12T02:15:27.594Z,15.70
2018-08-12T02:17:55.556Z,15.70
2018-08-12T02:20:23.420Z,15.60
2018-08-12T02:22:51.351Z,15.60
2018-08-12T02:25:19.221Z,15.60
2018-08-12T02:27:47.090Z,15.50
2018-08-12T02:30:14.962Z,15.50
2018-08-12T02:32:43.198Z,15.40
2018-08-12T02:35:11.157Z,15.40
2018-08-12T02:37:39.426Z,15.30
2018-08-12T02:40:08.317Z,15.30
2018-08-12T02:42:36.155Z,15.20
2018-08-12T02:45:05.339Z,15.20
2018-08-12T02:47:33.367Z,15.20
2018-08-12T02:50:01.231Z,15.20
2018-08-12T02:52:29.203Z,15.20
2018-08-12T02:54:57.221Z,15.20
2018-08-12T02:57:25.182Z,15.20
2018-08-12T02:59:53.078Z,15.20
2018-08-12T03:02:21.114Z,15.20
2018-08-12T03:04:49.130Z,15.30
2018-08-12T03:07:17.048Z,15.20
2018-08-12T03:09:44.933Z,15.20
2018-08-12T03:12:12.909Z,15.20
2018-08-12T03:14:40.860Z,15.10
2018-08-12T03:17:09.132Z,15.10
2018-08-12T03:19:37.062Z,15.00
2018-08-12T03:22:05.270Z,15.00
2018-08-12T03:24:33.166Z,14.90
2018-08-12T03:27:01.166Z,14.90
2018-08-12T03:29:29.114Z,14.90
2018-08-12T03:31:56.976Z,14.80
2018-08-12T03:34:24.796Z,14.70
2018-08-12T03:36:52.705Z,14.70
2018-08-12T03:39:20.604Z,14.60
2018-08-12T03:41:48.570Z,14.60
2018-08-12T03:44:16.555Z,14.60
2018-08-12T03:46:44.423Z,14.50
2018-08-12T03:49:12.324Z,14.50
2018-08-12T03:51:40.214Z,14.50
2018-08-12T03:54:08.159Z,14.40
2018-08-12T03:56:36.061Z,14.40
2018-08-12T03:59:03.960Z,14.40
2018-08-12T04:01:31.976Z,14.40
2018-08-12T04:03:59.873Z,14.40
2018-08-12T04:06:27.806Z,14.40
2018-08-12T04:08:55.653Z,14.50
2018-08-12T04:11:23.657Z,14.50
2018-08-12T04:13:51.537Z,14.40
2018-08-12T04:16:19.404Z,14.40
2018-08-12T04:18:47.319Z,14.40
2018-08-12T04:21:15.232Z,14.40
2018-08-12T04:23:43.222Z,14.40
2018-08-12T04:26:11.250Z,14.40
2018-08-12T04:28:39.102Z,14.40
2018-08-12T04:31:06.960Z,14.40
2018-08-12T04:33:34.882Z,14.50
2018-08-12T04:36:02.832Z,14.50
2018-08-12T04:38:30.676Z,14.60
2018-08-12T04:40:58.591Z,14.60
2018-08-12T04:43:26.370Z,14.70
2018-08-12T04:45:54.341Z,14.80
2018-08-12T04:48:22.209Z,14.90
2018-08-12T04:50:50.066Z,14.90
2018-08-12T04:53:18.028Z,15.10
2018-08-12T04:55:45.964Z,15.20
2018-08-12T04:58:13.836Z,15.30
2018-08-12T05:00:41.722Z,15.50
2018-08-12T05:03:09.606Z,15.80
2018-08-12T05:05:37.484Z,16.80
2018-08-12T05:08:05.412Z,18.20
2018-08-12T05:10:33.408Z,19.30
2018-08-12T05:13:01.493Z,20.50
2018-08-12T05:15:29.466Z,21.00
2018-08-12T05:17:57.425Z,21.10
2018-08-12T05:20:25.261Z,20.80
2018-08-12T05:22:53.047Z,20.30
2018-08-12T05:25:21.077Z,19.80
2018-08-12T05:27:48.999Z,19.80
2018-08-12T05:30:16.927Z,20.80
2018-08-12T05:32:44.848Z,21.90
2018-08-12T05:35:13.181Z,23.00
2018-08-12T05:37:41.221Z,23.90
2018-08-12T05:40:10.579Z,24.70
2018-08-12T05:42:38.487Z,25.00
2018-08-12T05:45:07.705Z,25.70
2018-08-12T05:47:35.667Z,26.60
2018-08-12T05:50:04.540Z,27.50
2018-08-12T05:52:32.368Z,28.50
2018-08-12T05:55:00.258Z,29.10
2018-08-12T05:57:28.183Z,29.70
2018-08-12T05:59:56.070Z,30.10
2018-08-12T06:02:24.056Z,30.10
2018-08-12T06:04:51.818Z,30.00
2018-08-12T06:07:19.790Z,30.00
2018-08-12T06:09:47.632Z,29.80
2018-08-12T06:12:15.678Z,29.60
2018-08-12T06:14:43.402Z,29.20
2018-08-12T06:17:11.315Z,28.80
2018-08-12T06:19:39.184Z,28.50
2018-08-12T06:22:07.480Z,28.40
2018-08-12T06:24:35.741Z,28.20
2018-08-12T06:27:03.659Z,28.00
2018-08-12T06:29:31.749Z,27.80
2018-08-12T06:31:59.587Z,27.70
2018-08-12T06:34:27.444Z,27.70
2018-08-12T06:36:55.476Z,27.60
2018-08-12T06:39:23.716Z,27.50
2018-08-12T06:41:51.625Z,27.60
2018-08-12T06:44:19.443Z,27.50
2018-08-12T06:46:47.353Z,27.60
2018-08-12T06:49:15.214Z,27.60
2018-08-12T06:51:43.381Z,27.70
2018-08-12T06:54:11.157Z,27.80
2018-08-12T06:56:39.054Z,27.70
2018-08-12T06:59:07.011Z,27.50
2018-08-12T07:01:34.834Z,27.50
2018-08-12T07:04:02.794Z,27.60
2018-08-12T07:06:30.787Z,27.70
2018-08-12T07:08:59.003Z,28.00
2018-08-12T07:11:27.856Z,28.10
2018-08-12T07:13:55.694Z,28.40
2018-08-12T07:16:23.611Z,28.60
2018-08-12T07:18:51.661Z,28.80
2018-08-12T07:21:19.617Z,29.10
2018-08-12T07:23:47.508Z,29.10
2018-08-12T07:26:15.462Z,29.20
2018-08-12T07:28:43.329Z,29.40
2018-08-12T07:31:11.187Z,29.70
2018-08-12T07:33:39.365Z,29.90
2018-08-12T07:36:07.375Z,30.20
2018-08-12T07:38:35.216Z,30.60
2018-08-12T07:41:03.083Z,30.90
2018-08-12T07:43:30.860Z,30.90
2018-08-12T07:45:58.757Z,31.00
2018-08-12T07:48:26.679Z,31.40
2018-08-12T07:50:54.553Z,32.10
2018-08-12T07:53:22.507Z,33.00
2018-08-12T07:55:50.485Z,34.10
2018-08-12T07:58:18.359Z,35.00
2018-08-12T08:00:46.276Z,35.30
2018-08-12T08:03:14.137Z,35.80
2018-08-12T08:05:41.987Z,36.60
2018-08-12T08:08:10.018Z,37.20
2018-08-12T08:10:37.840Z,37.90
2018-08-12T08:13:05.659Z,38.00
2018-08-12T08:15:33.546Z,38.40
2018-08-12T08:18:01.511Z,38.80
2018-08-12T08:20:29.523Z,39.10
2018-08-12T08:22:57.393Z,39.10
2018-08-12T08:25:25.458Z,40.20
2018-08-12T08:27:53.274Z,41.20
2018-08-12T08:30:21.114Z,42.40
2018-08-12T08:32:48.866Z,43.70
2018-08-12T08:35:16.732Z,44.70
2018-08-12T08:37:44.592Z,45.10
2018-08-12T08:40:14.000Z,45.60
2018-08-12T08:42:41.974Z,46.00
2018-08-12T08:45:13.570Z,46.70
2018-08-12T08:47:42.089Z,46.80
2018-08-12T08:50:09.976Z,46.90
2018-08-12T08:52:38.166Z,46.10
2018-08-12T08:55:07.600Z,45.50
2018-08-12T08:57:35.708Z,45.00
2018-08-12T09:00:06.737Z,44.10
2018-08-12T09:02:34.598Z,43.00
2018-08-12T09:05:02.473Z,41.40
2018-08-12T09:07:30.296Z,38.80
2018-08-12T09:09:58.134Z,36.60
2018-08-12T09:12:25.928Z,34.90
2018-08-12T09:14:53.910Z,33.40
2018-08-12T09:17:22.401Z,32.30
2018-08-12T09:19:50.285Z,31.40
2018-08-12T09:22:18.149Z,30.80
2018-08-12T09:24:45.933Z,30.30
2018-08-12T09:27:13.748Z,29.90
2018-08-12T09:29:41.588Z,29.60
2018-08-12T09:32:09.729Z,29.30
2018-08-12T09:34:37.653Z,29.00
2018-08-12T09:37:05.759Z,28.70
2018-08-12T09:39:33.738Z,28.50
2018-08-12T09:42:01.945Z,28.40
2018-08-12T09:44:30.020Z,28.40
2018-08-12T09:46:57.847Z,28.30
2018-08-12T09:49:25.815Z,28.30
2018-08-12T09:51:53.705Z,28.30
2018-08-12T09:54:21.541Z,28.20
2018-08-12T09:56:49.384Z,28.10
2018-08-12T09:59:17.279Z,28.00
2018-08-12T10:01:45.314Z,27.80
2018-08-12T10:04:13.128Z,27.70
2018-08-12T10:06:41.076Z,27.70
2018-08-12T10:09:10.510Z,27.70
2018-08-12T10:11:38.458Z,27.70
2018-08-12T10:14:06.444Z,27.70
2018-08-12T10:16:34.440Z,27.70
2018-08-12T10:19:02.405Z,27.60
2018-08-12T10:21:31.231Z,27.70
2018-08-12T10:23:59.241Z,27.70
2018-08-12T10:26:27.103Z,27.80
2018-08-12T10:28:55.193Z,27.80
2018-08-12T10:31:23.026Z,27.90
2018-08-12T10:33:50.920Z,27.90
2018-08-12T10:36:18.935Z,27.90
2018-08-12T10:38:46.743Z,27.90
2018-08-12T10:41:14.598Z,27.90
2018-08-12T10:43:42.653Z,27.90
2018-08-12T10:46:10.474Z,27.90
2018-08-12T10:48:38.339Z,28.00
2018-08-12T10:51:08.357Z,28.00
2018-08-12T10:53:37.040Z,28.00
2018-08-12T10:56:05.574Z,28.00
2018-08-12T10:58:33.882Z,28.00
2018-08-12T11:01:01.713Z,28.00
2018-08-12T11:03:29.602Z,28.10
2018-08-12T11:05:57.515Z,28.10
2018-08-12T11:08:25.502Z,28.20
2018-08-12T11:10:53.372Z,28.20
2018-08-12T11:13:21.166Z,28.10
2018-08-12T11:15:49.048Z,28.00
2018-08-12T11:18:16.933Z,28.10
2018-08-12T11:20:45.595Z,28.10
2018-08-12T11:23:14.639Z,28.10
2018-08-12T11:25:42.843Z,28.20
2018-08-12T11:28:12.219Z,28.20
2018-08-12T11:30:40.447Z,28.20
2018-08-12T11:33:09.233Z,28.20
2018-08-12T11:35:37.200Z,28.20
2018-08-12T11:38:05.448Z,28.20
2018-08-12T11:40:34.320Z,28.30
2018-08-12T11:43:02.509Z,28.30
2018-08-12T11:45:30.510Z,28.40
2018-08-12T11:47:58.368Z,28.50
2018-08-12T11:50:26.353Z,28.50
2018-08-12T11:52:54.196Z,28.50
2018-08-12T11:55:22.135Z,28.50
2018-08-12T11:57:50.669Z,28.50
2018-08-12T12:00:20.303Z,28.60
2018-08-12T12:02:49.336Z,28.60
2018-08-12T12:05:17.231Z,28.60
2018-08-12T12:07:45.469Z,28.60
2018-08-12T12:10:17.041Z,28.60
2018-08-12T12:12:46.844Z,28.60
2018-08-12T12:15:15.528Z,28.60
2018-08-12T12:17:44.234Z,28.60
2018-08-12T12:20:12.791Z,28.60
2018-08-12T12:22:41.481Z,28.50
2018-08-12T12:25:11.078Z,28.50
2018-08-12T12:27:38.979Z,28.60
2018-08-12T12:30:09.678Z,28.60
2018-08-12T12:32:37.576Z,28.70
2018-08-12T12:35:05.640Z,28.80
2018-08-12T12:37:33.492Z,28.80
2018-08-12T12:40:01.380Z,28.80
2018-08-12T12:42:29.346Z,28.80
2018-08-12T12:44:57.534Z,28.80
2018-08-12T12:47:25.448Z,28.80
2018-08-12T12:49:53.377Z,28.80
2018-08-12T12:52:21.221Z,28.80
2018-08-12T12:54:49.105Z,28.70
2018-08-12T12:57:16.955Z,28.70
2018-08-12T12:59:44.925Z,28.70
2018-08-12T13:02:12.887Z,28.70
2018-08-12T13:04:41.954Z,28.70
2018-08-12T13:07:09.987Z,28.70
2018-08-12T13:09:37.921Z,28.80
2018-08-12T13:12:06.190Z,28.90
2018-08-12T13:14:34.170Z,28.90
2018-08-12T13:17:02.222Z,28.90
2018-08-12T13:19:30.756Z,29.00
2018-08-12T13:21:58.712Z,29.10
2018-08-12T13:24:26.558Z,29.10
2018-08-12T13:26:54.332Z,29.10
2018-08-12T13:29:22.182Z,29.10
2018-08-12T13:31:50.096Z,29.00
2018-08-12T13:34:17.976Z,29.00
2018-08-12T13:36:45.918Z,29.10
2018-08-12T13:39:13.874Z,29.10
2018-08-12T13:41:41.787Z,29.10
2018-08-12T13:44:09.672Z,29.10
2018-08-12T13:46:37.565Z,29.00
2018-08-12T13:49:05.592Z,29.00
2018-08-12T13:51:36.241Z,29.00
2018-08-12T13:54:04.171Z,29.00
2018-08-12T13:56:32.109Z,29.00
2018-08-12T13:58:59.898Z,29.10
2018-08-12T14:01:27.907Z,29.20
2018-08-12T14:03:55.749Z,29.20
2018-08-12T14:06:23.597Z,29.20
2018-08-12T14:08:51.529Z,29.10
2018-08-12T14:11:19.405Z,29.10
2018-08-12T14:13:47.235Z,29.10
2018-08-12T14:16:15.116Z,29.00
2018-08-12T14:18:43.010Z,29.00
2018-08-12T14:21:10.992Z,28.90
2018-08-12T14:23:39.040Z,28.70
2018-08-12T14:26:06.990Z,28.70
2018-08-12T14:28:34.969Z,28.70
2018-08-12T14:31:02.986Z,28.70
2018-08-12T14:33:31.312Z,28.80
2018-08-12T14:35:59.226Z,28.80
2018-08-12T14:38:27.086Z,28.80
2018-08-12T14:40:54.945Z,28.80
2018-08-12T14:43:22.725Z,28.80
2018-08-12T14:45:50.648Z,28.80
2018-08-12T14:48:18.487Z,28.80
2018-08-12T14:50:46.259Z,28.70
2018-08-12T14:53:14.119Z,28.70
2018-08-12T14:55:41.984Z,28.70
2018-08-12T14:58:09.779Z,28.70
2018-08-12T15:00:37.679Z,28.70
2018-08-12T15:03:05.896Z,28.70
2018-08-12T15:05:33.812Z,28.70
2018-08-12T15:08:01.806Z,28.80
2018-08-12T15:10:29.623Z,28.80
2018-08-12T15:12:57.552Z,28.80
2018-08-12T15:15:25.501Z,28.70
2018-08-12T15:17:53.350Z,28.70
2018-08-12T15:20:21.232Z,28.70
2018-08-12T15:22:49.146Z,28.70
2018-08-12T15:25:18.585Z,28.70
2018-08-12T15:27:46.881Z,28.80
2018-08-12T15:30:14.892Z,28.80
2018-08-12T15:32:42.775Z,28.80
2018-08-12T15:35:10.969Z,28.80
2018-08-12T15:37:39.841Z,28.80
2018-08-12T15:40:10.560Z,28.80
2018-08-12T15:42:38.844Z,28.80
2018-08-12T15:45:09.426Z,28.80
2018-08-12T15:47:37.566Z,28.80
2018-08-12T15:50:07.632Z,28.80
2018-08-12T15:52:36.553Z,28.80
2018-08-12T15:55:04.784Z,28.70
2018-08-12T15:57:33.463Z,28.80
2018-08-12T16:00:01.727Z,28.80
2018-08-12T16:02:30.453Z,28.80
2018-08-12T16:04:59.241Z,28.70
2018-08-12T16:07:27.704Z,28.60
2018-08-12T16:09:56.478Z,28.60
2018-08-12T16:12:24.544Z,28.60
2018-08-12T16:14:52.426Z,28.60
2018-08-12T16:17:20.346Z,28.50
2018-08-12T16:19:48.240Z,28.50
2018-08-12T16:22:17.233Z,28.50
2018-08-12T16:24:45.220Z,28.50
2018-08-12T16:27:13.741Z,28.50
2018-08-12T16:29:42.428Z,28.50
2018-08-12T16:32:10.360Z,28.40
2018-08-12T16:34:38.377Z,28.40
2018-08-12T16:37:06.229Z,28.30
2018-08-12T16:39:34.028Z,28.30
2018-08-12T16:42:02.079Z,28.30
2018-08-12T16:44:29.939Z,28.30
2018-08-12T16:46:57.973Z,28.30
2018-08-12T16:49:26.004Z,28.30
2018-08-12T16:51:53.808Z,28.30
2018-08-12T16:54:21.629Z,28.20
2018-08-12T16:56:49.680Z,28.20
2018-08-12T16:59:17.644Z,28.30
2018-08-12T17:01:45.537Z,28.30
2018-08-12T17:04:13.519Z,28.30
2018-08-12T17:06:41.417Z,28.30
2018-08-12T17:09:10.730Z,28.20
2018-08-12T17:11:38.630Z,28.20
2018-08-12T17:14:07.204Z,28.10
2018-08-12T17:16:35.145Z,28.00
2018-08-12T17:19:03.103Z,27.90
2018-08-12T17:21:30.996Z,27.80
2018-08-12T17:23:58.857Z,27.70
2018-08-12T17:26:26.762Z,27.60
2018-08-12T17:28:54.550Z,27.50
2018-08-12T17:31:22.450Z,27.40
2018-08-12T17:33:50.342Z,27.30
2018-08-12T17:36:18.313Z,27.20
2018-08-12T17:38:46.207Z,27.10
2018-08-12T17:41:14.076Z,27.00
2018-08-12T17:43:41.955Z,26.90
2018-08-12T17:46:09.883Z,26.90
2018-08-12T17:48:37.725Z,26.80
2018-08-12T17:51:05.747Z,26.80
2018-08-12T17:53:33.560Z,26.70
2018-08-12T17:56:01.477Z,26.60
2018-08-12T17:58:29.267Z,26.60
2018-08-12T18:00:57.100Z,26.50
2018-08-12T18:03:25.080Z,26.50
2018-08-12T18:05:52.923Z,26.40
2018-08-12T18:08:20.849Z,26.40
2018-08-12T18:10:48.763Z,26.30
2018-08-12T18:13:16.650Z,26.20
2018-08-12T18:15:44.614Z,26.20
2018-08-12T18:18:12.601Z,26.20
2018-08-12T18:20:40.579Z,26.20
2018-08-12T18:23:08.359Z,26.10
2018-08-12T18:25:36.280Z,26.00
2018-08-12T18:28:04.307Z,26.00
2018-08-12T18:30:32.103Z,26.00
2018-08-12T18:33:00.158Z,26.00
2018-08-12T18:35:28.043Z,26.00
2018-08-12T18:37:55.989Z,25.90
2018-08-12T18:40:24.052Z,25.80
2018-08-12T18:42:51.953Z,25.80
2018-08-12T18:45:20.067Z,25.70
2018-08-12T18:47:48.021Z,25.60
2018-08-12T18:50:16.075Z,25.50
2018-08-12T18:52:44.200Z,25.40
2018-08-12T18:55:12.829Z,25.30
2018-08-12T18:57:40.772Z,25.30
2018-08-12T19:00:10.924Z,25.10
2018-08-12T19:02:38.958Z,25.00
2018-08-12T19:05:10.701Z,24.90
2018-08-12T19:07:39.000Z,24.80
2018-08-12T19:10:08.160Z,24.80
2018-08-12T19:12:36.136Z,24.70
2018-08-12T19:15:06.087Z,24.80
2018-08-12T19:17:34.305Z,24.70
2018-08-12T19:20:02.522Z,24.60
2018-08-12T19:22:30.430Z,24.60
2018-08-12T19:24:58.474Z,24.60
2018-08-12T19:27:26.408Z,24.50
2018-08-12T19:29:54.275Z,24.40
2018-08-12T19:32:22.163Z,24.40
2018-08-12T19:34:50.069Z,24.30
2018-08-12T19:37:17.925Z,24.20
2018-08-12T19:39:45.861Z,24.10
2018-08-12T19:42:13.671Z,24.00
2018-08-12T19:44:41.707Z,23.90
2018-08-12T19:47:09.545Z,23.90
2018-08-12T19:49:37.385Z,23.80
2018-08-12T19:52:13.422Z,23.70
2018-08-12T19:54:45.755Z,23.70
2018-08-12T19:57:15.018Z,23.60
2018-08-12T19:59:43.124Z,23.60
2018-08-12T20:02:11.302Z,23.40
2018-08-12T20:04:39.206Z,23.40
2018-08-12T20:07:07.263Z,23.30
2018-08-12T20:09:35.176Z,23.20
2018-08-12T20:12:03.315Z,23.20
2018-08-12T20:14:31.747Z,23.10
2018-08-12T20:16:59.699Z,23.10
2018-08-12T20:19:27.703Z,23.00
2018-08-12T20:21:55.554Z,23.00
2018-08-12T20:24:23.378Z,23.00
2018-08-12T20:26:51.324Z,22.90
2018-08-12T20:29:19.168Z,22.90
2018-08-12T20:31:47.118Z,22.80
2018-08-12T20:34:14.938Z,22.70
2018-08-12T20:36:43.195Z,22.70
2018-08-12T20:39:12.472Z,22.70
2018-08-12T20:41:40.815Z,22.60
2018-08-12T20:44:08.735Z,22.60
2018-08-12T20:46:36.713Z,22.60
2018-08-12T20:49:04.712Z,22.60
2018-08-12T20:51:32.579Z,22.60
2018-08-12T20:54:00.441Z,22.60
2018-08-12T20:56:28.329Z,22.50
2018-08-12T20:58:56.356Z,22.50
2018-08-12T21:01:24.179Z,22.40
2018-08-12T21:03:52.096Z,22.40
2018-08-12T21:06:20.086Z,22.40
2018-08-12T21:08:47.915Z,22.30
2018-08-12T21:11:15.965Z,22.30
2018-08-12T21:13:43.745Z,22.30
2018-08-12T21:16:11.556Z,22.20
2018-08-12T21:18:39.588Z,22.20
2018-08-12T21:21:07.436Z,22.10
2018-08-12T21:23:35.230Z,22.10
2018-08-12T21:26:03.263Z,22.00
2018-08-12T21:28:31.265Z,21.90
2018-08-12T21:30:59.103Z,21.80
2018-08-12T21:33:27.235Z,21.80
2018-08-12T21:35:54.985Z,21.70
2018-08-12T21:38:22.752Z,21.60
2018-08-12T21:40:50.627Z,21.60
2018-08-12T21:43:18.346Z,21.50
2018-08-12T21:45:46.197Z,21.40
2018-08-12T21:48:14.218Z,21.40
2018-08-12T21:50:42.056Z,21.30
2018-08-12T21:53:09.904Z,21.30
2018-08-12T21:55:37.985Z,21.20
2018-08-12T21:58:05.851Z,21.20
2018-08-12T22:00:33.731Z,21.20
2018-08-12T22:03:01.746Z,21.10
2018-08-12T22:05:29.567Z,21.10
2018-08-12T22:07:58.951Z,21.10
2018-08-12T22:10:26.970Z,21.00
2018-08-12T22:12:54.740Z,20.90
2018-08-12T22:15:22.726Z,20.90
2018-08-12T22:17:50.554Z,20.90
2018-08-12T22:20:18.460Z,20.90
2018-08-12T22:22:46.255Z,20.90
2018-08-12T22:25:14.178Z,20.80
2018-08-12T22:27:42.028Z,20.80
2018-08-12T22:30:12.105Z,20.70
2018-08-12T22:32:40.049Z,20.70
2018-08-12T22:35:07.890Z,20.60
2018-08-12T22:37:35.713Z,20.60
2018-08-12T22:40:04.334Z,20.60
2018-08-12T22:42:32.184Z,20.60
2018-08-12T22:45:00.071Z,20.60
2018-08-12T22:47:28.011Z,20.60
2018-08-12T22:49:55.994Z,20.60
2018-08-12T22:52:24.033Z,20.50
2018-08-12T22:54:51.900Z,20.50
2018-08-12T22:57:19.803Z,20.50
2018-08-12T22:59:47.595Z,20.50
2018-08-12T23:02:15.688Z,20.50
2018-08-12T23:04:43.823Z,20.50
2018-08-12T23:07:11.724Z,20.50
2018-08-12T23:09:39.881Z,20.40
2018-08-12T23:12:08.048Z,20.40
2018-08-12T23:14:35.847Z,20.40
2018-08-12T23:17:03.985Z,20.40
2018-08-12T23:19:31.798Z,20.40
2018-08-12T23:21:59.687Z,20.30
2018-08-12T23:24:27.579Z,20.30
2018-08-12T23:26:55.470Z,20.20
2018-08-12T23:29:23.382Z,20.20
2018-08-12T23:31:51.304Z,20.20
2018-08-12T23:34:19.181Z,20.10
2018-08-12T23:36:47.079Z,20.10
2018-08-12T23:39:14.940Z,20.00
2018-08-12T23:41:42.872Z,20.00
2018-08-12T23:44:10.779Z,20.00
2018-08-12T23:46:38.714Z,19.90
2018-08-12T23:49:06.512Z,19.90
2018-08-12T23:51:34.366Z,19.80
2018-08-12T23:54:02.383Z,19.90
2018-08-12T23:56:30.442Z,19.80
2018-08-12T23:58:58.240Z,19.80
